createdAt,value
2023-02-07T00:01:21.834Z,95641.44
2023-02-07T00:03:52.641Z,95627.53
2023-02-07T00:06:26.714Z,95646.59
2023-02-07T00:08:54.514Z,95653.66
2023-02-07T00:11:23.189Z,95646.59
2023-02-07T00:13:53.993Z,95668.00
2023-02-07T00:16:21.865Z,95669.03
2023-02-07T00:18:48.554Z,95688.09
2023-02-07T00:21:19.359Z,95689.72
2023-02-07T00:23:47.011Z,95681.66
2023-02-07T00:26:15.217Z,95676.47
2023-02-07T00:28:44.562Z,95679.59
2023-02-07T00:31:16.630Z,95691.91
2023-02-07T00:33:45.208Z,95699.56
2023-02-07T00:36:14.918Z,95691.00
2023-02-07T00:38:42.175Z,95702.28
2023-02-07T00:41:11.064Z,95687.13
2023-02-07T00:43:37.688Z,95689.78
2023-02-07T00:46:05.644Z,95684.69
2023-02-07T00:48:33.518Z,95676.47
2023-02-07T00:51:00.692Z,95689.63
2023-02-07T00:53:29.204Z,95704.09
2023-02-07T00:55:56.274Z,95691.75
2023-02-07T00:58:23.565Z,95695.41
2023-02-07T01:00:50.445Z,95694.59
2023-02-07T01:03:17.790Z,95692.50
2023-02-07T01:05:44.693Z,95675.34
2023-02-07T01:08:11.732Z,95686.81
2023-02-07T01:10:43.701Z,95686.31
2023-02-07T01:13:11.760Z,95684.19
2023-02-07T01:15:40.734Z,95686.91
2023-02-07T01:18:08.360Z,95682.34
2023-02-07T01:20:35.482Z,95683.69
2023-02-07T01:23:05.580Z,95680.16
2023-02-07T01:25:32.311Z,95688.78
2023-02-07T01:27:58.973Z,95685.25
2023-02-07T01:30:25.617Z,95686.09
2023-02-07T01:32:52.292Z,95687.16
2023-02-07T01:35:18.997Z,95683.66
2023-02-07T01:37:45.675Z,95682.63
2023-02-07T01:40:13.167Z,95690.91
2023-02-07T01:42:39.907Z,95690.72
2023-02-07T01:45:38.389Z,95700.16
2023-02-07T01:48:20.591Z,95678.22
2023-02-07T01:50:49.680Z,95675.03
2023-02-07T01:53:18.805Z,95694.59
2023-02-07T01:55:47.585Z,95685.78
2023-02-07T01:58:14.934Z,95687.13
2023-02-07T02:00:41.925Z,95687.94
2023-02-07T02:03:08.597Z,95697.84
2023-02-07T02:05:37.299Z,95709.34
2023-02-07T02:08:04.654Z,95713.66
2023-02-07T02:10:50.169Z,95726.22
2023-02-07T02:13:25.921Z,95729.94
2023-02-07T02:16:19.031Z,95718.69
2023-02-07T02:19:15.066Z,95733.16
2023-02-07T02:22:12.383Z,95741.44
2023-02-07T02:25:04.512Z,95730.19
2023-02-07T02:27:34.318Z,95738.22
2023-02-07T02:30:03.825Z,95738.22
2023-02-07T02:32:42.749Z,95738.50
2023-02-07T02:35:28.179Z,95724.31
2023-02-07T02:38:13.520Z,95729.38
2023-02-07T02:40:58.670Z,95718.38
2023-02-07T02:43:57.232Z,95722.94
2023-02-07T02:46:35.825Z,95726.41
2023-02-07T02:49:04.989Z,95729.06
2023-02-07T02:51:32.534Z,95735.47
2023-02-07T02:54:01.101Z,95727.47
2023-02-07T02:56:41.591Z,95718.38
2023-02-07T02:59:34.307Z,95714.41
2023-02-07T03:02:13.337Z,95741.66
2023-02-07T03:04:53.537Z,95738.94
2023-02-07T03:07:38.888Z,95736.31
2023-02-07T03:10:18.608Z,95742.69
2023-02-07T03:12:57.395Z,95740.84
2023-02-07T03:15:41.375Z,95748.84
2023-02-07T03:18:25.800Z,95753.97
2023-02-07T03:21:03.422Z,95758.81
2023-02-07T03:23:31.921Z,95760.16
2023-02-07T03:26:02.198Z,95770.34
2023-02-07T03:28:31.465Z,95774.88
2023-02-07T03:31:00.693Z,95768.44
2023-02-07T03:33:28.794Z,95778.34
2023-02-07T03:36:38.865Z,95794.13
2023-02-07T03:39:05.659Z,95806.16
2023-02-07T03:41:42.335Z,95808.28
2023-02-07T03:44:12.865Z,95818.72
2023-02-07T03:46:40.342Z,95819.22
2023-02-07T03:49:11.438Z,95814.94
2023-02-07T03:51:38.136Z,95820.00
2023-02-07T03:54:04.808Z,95823.19
2023-02-07T03:56:31.470Z,95814.19
2023-02-07T03:58:58.089Z,95821.13
2023-02-07T04:01:24.772Z,95812.25
2023-02-07T04:03:51.428Z,95823.47
2023-02-07T04:06:18.445Z,95825.53
2023-02-07T04:08:45.072Z,95815.88
2023-02-07T04:11:11.896Z,95816.72
2023-02-07T04:13:38.554Z,95819.72
2023-02-07T04:16:06.616Z,95807.66
2023-02-07T04:18:33.820Z,95814.28
2023-02-07T04:21:05.613Z,95820.72
2023-02-07T04:23:32.231Z,95828.38
2023-02-07T04:25:59.257Z,95834.53
2023-02-07T04:28:28.252Z,95832.13
2023-02-07T04:30:55.368Z,95823.03
2023-02-07T04:33:22.415Z,95816.09
2023-02-07T04:35:56.464Z,95826.56
2023-02-07T04:38:23.799Z,95829.25
2023-02-07T04:40:51.116Z,95830.50
2023-02-07T04:43:18.697Z,95826.66
2023-02-07T04:45:48.454Z,95823.16
2023-02-07T04:48:15.490Z,95817.03
2023-02-07T04:50:42.226Z,95819.53
2023-02-07T04:53:08.930Z,95817.97
2023-02-07T04:55:37.410Z,95820.28
2023-02-07T04:58:07.567Z,95811.44
2023-02-07T05:00:34.743Z,95806.38
2023-02-07T05:03:01.396Z,95804.75
2023-02-07T05:05:28.039Z,95799.97
2023-02-07T05:07:54.718Z,95805.34
2023-02-07T05:10:21.414Z,95812.84
2023-02-07T05:12:48.118Z,95814.16
2023-02-07T05:15:15.672Z,95812.84
2023-02-07T05:17:42.400Z,95809.69
2023-02-07T05:20:09.658Z,95800.59
2023-02-07T05:22:36.387Z,95812.28
2023-02-07T05:25:03.329Z,95815.81
2023-02-07T05:27:30.713Z,95815.81
2023-02-07T05:29:59.437Z,95819.03
2023-02-07T05:32:44.994Z,95824.59
2023-02-07T05:35:12.056Z,95826.72
2023-02-07T05:37:38.791Z,95821.91
2023-02-07T05:40:05.990Z,95822.41
2023-02-07T05:42:32.932Z,95818.13
2023-02-07T05:44:59.582Z,95818.09
2023-02-07T05:47:26.456Z,95823.22
2023-02-07T05:49:53.192Z,95819.50
2023-02-07T05:52:19.949Z,95820.84
2023-02-07T05:54:46.697Z,95816.50
2023-02-07T05:57:13.599Z,95825.31
2023-02-07T05:59:40.265Z,95830.66
2023-02-07T06:02:07.060Z,95841.63
2023-02-07T06:04:33.983Z,95835.22
2023-02-07T06:07:00.915Z,95830.88
2023-02-07T06:09:27.844Z,95823.44
2023-02-07T06:11:56.117Z,95834.88
2023-02-07T06:14:23.613Z,95835.09
2023-02-07T06:16:50.317Z,95843.94
2023-02-07T06:19:16.956Z,95839.66
2023-02-07T06:21:46.749Z,95839.94
2023-02-07T06:24:15.629Z,95839.09
2023-02-07T06:26:42.483Z,95830.56
2023-02-07T06:29:09.700Z,95834.03
2023-02-07T06:31:36.750Z,95838.28
2023-02-07T06:34:03.455Z,95840.47
2023-02-07T06:36:30.350Z,95825.53
2023-02-07T06:38:57.686Z,95834.28
2023-02-07T06:41:24.338Z,95837.47
2023-02-07T06:43:51.340Z,95841.25
2023-02-07T06:46:18.302Z,95831.94
2023-02-07T06:48:45.080Z,95827.06
2023-02-07T06:51:12.988Z,95827.53
2023-02-07T06:53:39.761Z,95818.44
2023-02-07T06:56:06.626Z,95830.41
2023-02-07T06:58:34.386Z,95825.88
2023-02-07T07:01:03.553Z,95823.28
2023-02-07T07:03:30.569Z,95824.66
2023-02-07T07:05:59.065Z,95818.28
2023-02-07T07:08:27.110Z,95824.66
2023-02-07T07:10:54.744Z,95827.03
2023-02-07T07:13:21.435Z,95831.00
2023-02-07T07:15:48.234Z,95831.53
2023-02-07T07:18:15.060Z,95824.00
2023-02-07T07:20:41.828Z,95832.06
2023-02-07T07:23:09.675Z,95831.03
2023-02-07T07:25:36.662Z,95835.31
2023-02-07T07:28:03.605Z,95843.66
2023-02-07T07:30:31.298Z,95839.66
2023-02-07T07:32:58.065Z,95841.66
2023-02-07T07:35:24.742Z,95843.00
2023-02-07T07:37:52.701Z,95848.38
2023-02-07T07:40:20.006Z,95853.78
2023-02-07T07:42:50.002Z,95859.47
2023-02-07T07:45:28.848Z,95867.28
2023-02-07T07:47:55.833Z,95870.78
2023-02-07T07:50:23.968Z,95876.97
2023-02-07T07:52:52.862Z,95873.72
2023-02-07T07:55:19.737Z,95874.56
2023-02-07T07:57:46.484Z,95869.53
2023-02-07T08:00:13.814Z,95873.63
2023-02-07T08:02:41.451Z,95878.47
2023-02-07T08:05:09.070Z,95869.31
2023-02-07T08:07:35.800Z,95873.13
2023-02-07T08:10:02.729Z,95864.09
2023-02-07T08:12:29.847Z,95863.63
2023-02-07T08:14:56.843Z,95870.59
2023-02-07T08:17:23.641Z,95858.88
2023-02-07T08:19:52.483Z,95861.00
2023-02-07T08:22:19.366Z,95857.53
2023-02-07T08:24:46.062Z,95854.34
2023-02-07T08:27:12.842Z,95862.69
2023-02-07T08:29:39.567Z,95853.31
2023-02-07T08:32:06.388Z,95853.84
2023-02-07T08:34:37.647Z,95847.44
2023-02-07T08:37:06.647Z,95846.66
2023-02-07T08:39:35.449Z,95857.88
2023-02-07T08:42:03.175Z,95855.72
2023-02-07T08:44:30.116Z,95855.97
2023-02-07T08:46:57.055Z,95851.97
2023-02-07T08:49:23.860Z,95857.34
2023-02-07T08:51:50.765Z,95862.94
2023-02-07T08:54:17.531Z,95862.13
2023-02-07T08:56:45.988Z,95866.16
2023-02-07T08:59:14.023Z,95863.19
2023-02-07T09:01:40.990Z,95862.84
2023-02-07T09:04:08.525Z,95861.19
2023-02-07T09:06:35.217Z,95854.47
2023-02-07T09:09:01.979Z,95855.06
2023-02-07T09:11:28.841Z,95847.75
2023-02-07T09:13:55.751Z,95844.22
2023-02-07T09:16:23.395Z,95843.84
2023-02-07T09:18:53.411Z,95841.88
2023-02-07T09:21:20.309Z,95842.41
2023-02-07T09:23:47.034Z,95854.94
2023-02-07T09:26:22.096Z,95850.34
2023-02-07T09:28:49.132Z,95849.16
2023-02-07T09:31:16.482Z,95864.47
2023-02-07T09:33:43.417Z,95868.44
2023-02-07T09:36:21.869Z,95876.81
2023-02-07T09:38:48.642Z,95879.16
2023-02-07T09:41:41.605Z,95868.59
2023-02-07T09:44:20.538Z,95881.06
2023-02-07T09:46:54.227Z,95890.25
2023-02-07T09:49:33.636Z,95894.19
2023-02-07T09:52:02.177Z,95894.22
2023-02-07T09:54:35.952Z,95898.25
2023-02-07T09:57:07.360Z,95906.78
2023-02-07T09:59:52.778Z,95912.44
2023-02-07T10:02:30.968Z,95920.50
2023-02-07T10:05:02.622Z,95921.28
2023-02-07T10:07:30.374Z,95926.03
2023-02-07T10:10:00.571Z,95917.31
2023-02-07T10:12:48.635Z,95917.91
2023-02-07T10:16:07.488Z,95915.56
2023-02-07T10:18:46.704Z,95904.06
2023-02-07T10:21:25.798Z,95889.75
2023-02-07T10:23:58.607Z,95896.06
2023-02-07T10:26:32.763Z,95896.38
2023-02-07T10:29:25.947Z,95896.97
2023-02-07T10:31:55.646Z,95912.78
2023-02-07T10:34:35.459Z,95916.59
2023-02-07T10:37:11.964Z,95925.03
2023-02-07T10:39:43.892Z,95927.72
2023-02-07T10:42:16.203Z,95931.94
2023-02-07T10:44:43.236Z,95929.31
2023-02-07T10:47:15.201Z,95937.84
2023-02-07T10:49:45.519Z,95936.38
2023-02-07T10:52:21.335Z,95935.91
2023-02-07T10:54:55.267Z,95937.91
2023-02-07T10:57:23.945Z,95934.53
2023-02-07T10:59:58.739Z,95935.44
2023-02-07T11:02:28.619Z,95935.16
2023-02-07T11:04:57.320Z,95925.13
2023-02-07T11:07:25.455Z,95923.25
2023-02-07T11:09:52.606Z,95926.94
2023-02-07T11:12:27.704Z,95927.97
2023-02-07T11:15:01.449Z,95933.88
2023-02-07T11:17:28.675Z,95936.78
2023-02-07T11:19:56.296Z,95929.84
2023-02-07T11:22:24.684Z,95933.28
2023-02-07T11:24:59.794Z,95926.81
2023-02-07T11:27:26.794Z,95919.38
2023-02-07T11:29:59.769Z,95914.00
2023-02-07T11:32:28.408Z,95916.56
2023-02-07T11:35:05.747Z,95923.59
2023-02-07T11:37:34.506Z,95921.63
2023-02-07T11:40:19.302Z,95916.25
2023-02-07T11:42:56.880Z,95914.72
2023-02-07T11:45:23.875Z,95911.16
2023-02-07T11:47:55.491Z,95907.88
2023-02-07T11:50:30.485Z,95914.28
2023-02-07T11:53:00.356Z,95913.69
2023-02-07T11:55:38.746Z,95910.13
2023-02-07T11:58:17.793Z,95908.50
2023-02-07T12:00:45.451Z,95896.44
2023-02-07T12:03:43.063Z,95899.34
2023-02-07T12:06:15.731Z,95900.66
2023-02-07T12:08:44.195Z,95897.25
2023-02-07T12:11:18.056Z,95890.63
2023-02-07T12:13:52.655Z,95898.38
2023-02-07T12:16:25.430Z,95895.88
2023-02-07T12:19:01.805Z,95895.25
2023-02-07T12:21:39.248Z,95895.56
2023-02-07T12:24:17.221Z,95902.66
2023-02-07T12:26:47.813Z,95906.16
2023-02-07T12:29:38.258Z,95903.16
2023-02-07T12:32:14.294Z,95896.84
2023-02-07T12:34:53.497Z,95896.13
2023-02-07T12:37:32.267Z,95903.78
2023-02-07T12:40:08.342Z,95899.00
2023-02-07T12:45:57.116Z,95904.22
2023-02-07T12:48:30.711Z,95913.25
2023-02-07T12:51:19.547Z,95912.53
2023-02-07T12:54:05.169Z,95911.81
2023-02-07T12:56:54.237Z,95909.84
2023-02-07T12:59:41.556Z,95902.13
2023-02-07T13:02:27.271Z,95909.63
2023-02-07T13:05:10.203Z,95903.09
2023-02-07T13:07:36.881Z,95902.31
2023-02-07T13:10:11.469Z,95902.03
2023-02-07T13:12:43.187Z,95905.59
2023-02-07T13:15:22.002Z,95898.84
2023-02-07T13:18:01.795Z,95900.44
2023-02-07T13:20:50.170Z,95898.56
2023-02-07T13:23:21.479Z,95894.28
2023-02-07T13:26:02.338Z,95903.06
2023-02-07T13:28:42.671Z,95889.03
2023-02-07T13:31:13.950Z,95887.44
2023-02-07T13:33:42.242Z,95887.94
2023-02-07T13:36:36.210Z,95883.47
2023-02-07T13:39:19.045Z,95880.47
2023-02-07T13:42:08.553Z,95879.34
2023-02-07T13:44:44.446Z,95891.38
2023-02-07T13:47:17.164Z,95872.88
2023-02-07T13:49:54.322Z,95876.25
2023-02-07T13:52:32.704Z,95882.03
2023-02-07T13:55:14.786Z,95882.91
2023-02-07T13:58:02.613Z,95878.34
2023-02-07T14:00:32.149Z,95875.88
2023-02-07T14:03:05.001Z,95874.81
2023-02-07T14:05:40.464Z,95872.53
2023-02-07T14:08:24.849Z,95877.38
2023-02-07T14:10:54.425Z,95877.38
2023-02-07T14:13:27.146Z,95880.25
2023-02-07T14:16:05.184Z,95871.94
2023-02-07T14:18:40.799Z,95866.66
2023-02-07T14:21:20.057Z,95862.72
2023-02-07T14:23:59.225Z,95859.31
2023-02-07T14:26:38.506Z,95860.31
2023-02-07T14:29:20.392Z,95868.47
2023-02-07T14:31:59.484Z,95862.59
2023-02-07T14:35:03.426Z,95868.03
2023-02-07T14:37:46.504Z,95858.91
2023-02-07T14:40:54.412Z,95856.63
2023-02-07T14:43:29.636Z,95850.78
2023-02-07T14:45:56.444Z,95861.69
2023-02-07T14:48:58.409Z,95857.69
2023-02-07T14:51:37.114Z,95863.59
2023-02-07T14:54:13.405Z,95865.91
2023-02-07T14:56:40.228Z,95862.63
2023-02-07T14:59:14.598Z,95870.84
2023-02-07T15:01:41.623Z,95865.97
2023-02-07T15:04:10.774Z,95870.34
2023-02-07T15:06:44.116Z,95860.31
2023-02-07T15:09:23.676Z,95869.06
2023-02-07T15:11:59.863Z,95868.91
2023-02-07T15:14:34.036Z,95870.75
2023-02-07T15:17:05.046Z,95867.97
2023-02-07T15:19:38.180Z,95874.53
2023-02-07T15:22:20.427Z,95879.69
2023-02-07T15:24:56.010Z,95884.47
2023-02-07T15:27:27.551Z,95880.56
2023-02-07T15:29:59.874Z,95879.03
2023-02-07T15:32:30.176Z,95870.81
2023-02-07T15:34:58.202Z,95872.69
2023-02-07T15:37:26.668Z,95876.75
2023-02-07T15:39:55.829Z,95884.94
2023-02-07T15:42:23.253Z,95886.63
2023-02-07T15:44:55.283Z,95886.31
2023-02-07T15:47:28.072Z,95886.63
2023-02-07T15:50:07.508Z,95884.72
2023-02-07T15:52:36.449Z,95881.47
2023-02-07T15:55:17.745Z,95887.19
2023-02-07T15:57:45.794Z,95887.41
2023-02-07T16:00:24.789Z,95886.31
2023-02-07T16:03:03.893Z,95891.03
2023-02-07T16:05:34.535Z,95888.41
2023-02-07T16:08:02.177Z,95893.56
2023-02-07T16:10:33.994Z,95897.50
2023-02-07T16:13:00.565Z,95905.50
2023-02-07T16:15:36.679Z,95898.28
2023-02-07T16:18:04.815Z,95903.94
2023-02-07T16:20:35.317Z,95909.19
2023-02-07T16:23:07.569Z,95903.06
2023-02-07T16:25:36.416Z,95908.47
2023-02-07T16:28:12.893Z,95913.59
2023-02-07T16:30:41.282Z,95908.78
2023-02-07T16:33:12.657Z,95908.84
2023-02-07T16:35:39.519Z,95911.84
2023-02-07T16:38:06.216Z,95918.63
2023-02-07T16:40:33.001Z,95922.94
2023-02-07T16:43:02.851Z,95928.56
2023-02-07T16:45:30.436Z,95927.78
2023-02-07T16:47:59.070Z,95937.75
2023-02-07T16:50:28.849Z,95932.13
2023-02-07T16:52:59.712Z,95934.28
2023-02-07T16:55:28.673Z,95940.03
2023-02-07T16:57:57.719Z,95936.06
2023-02-07T17:00:27.097Z,95938.50
2023-02-07T17:02:54.441Z,95941.72
2023-02-07T17:05:22.736Z,95954.59
2023-02-07T17:07:50.523Z,95936.84
2023-02-07T17:10:30.714Z,95947.06
2023-02-07T17:12:58.264Z,95942.72
2023-02-07T17:15:25.624Z,95953.50
2023-02-07T17:17:53.930Z,95958.66
2023-02-07T17:20:32.856Z,95956.53
2023-02-07T17:23:00.726Z,95957.34
2023-02-07T17:25:30.047Z,95960.59
2023-02-07T17:27:58.978Z,95957.06
2023-02-07T17:30:30.236Z,95959.50
2023-02-07T17:32:58.730Z,95959.47
2023-02-07T17:35:25.827Z,95953.56
2023-02-07T17:37:53.657Z,95956.53
2023-02-07T17:40:23.454Z,95950.13
2023-02-07T17:42:50.866Z,95951.44
2023-02-07T17:45:18.730Z,95953.34
2023-02-07T17:47:45.839Z,95946.91
2023-02-07T17:50:18.379Z,95954.72
2023-02-07T17:52:45.954Z,95956.34
2023-02-07T17:55:13.777Z,95958.25
2023-02-07T17:57:42.662Z,95955.03
2023-02-07T18:00:18.918Z,95953.47
2023-02-07T18:02:47.573Z,95953.22
2023-02-07T18:05:15.952Z,95952.19
2023-02-07T18:07:43.595Z,95959.69
2023-02-07T18:10:16.740Z,95960.50
2023-02-07T18:12:43.975Z,95950.81
2023-02-07T18:15:11.373Z,95959.94
2023-02-07T18:17:38.376Z,95964.00
2023-02-07T18:20:07.328Z,95959.69
2023-02-07T18:22:34.194Z,95965.94
2023-02-07T18:25:01.191Z,95971.28
2023-02-07T18:27:28.088Z,95963.22
2023-02-07T18:29:54.928Z,95963.53
2023-02-07T18:32:21.816Z,95966.53
2023-02-07T18:34:48.818Z,95959.25
2023-02-07T18:37:15.527Z,95960.84
2023-02-07T18:39:42.226Z,95962.19
2023-02-07T18:42:08.889Z,95963.59
2023-02-07T18:44:35.572Z,95968.41
2023-02-07T18:47:02.575Z,95970.53
2023-02-07T18:49:29.444Z,95963.84
2023-02-07T18:51:56.316Z,95962.25
2023-02-07T18:54:24.241Z,95962.78
2023-02-07T18:56:52.631Z,95955.53
2023-02-07T18:59:23.089Z,95956.09
2023-02-07T19:01:51.143Z,95953.16
2023-02-07T19:04:18.063Z,95959.59
2023-02-07T19:06:45.811Z,95955.31
2023-02-07T19:09:13.216Z,95959.59
2023-02-07T19:11:40.611Z,95954.78
2023-02-07T19:14:16.117Z,95959.59
2023-02-07T19:16:43.580Z,95961.75
2023-02-07T19:19:13.577Z,95961.47
2023-02-07T19:21:40.600Z,95956.66
2023-02-07T19:24:10.300Z,95947.84
2023-02-07T19:26:38.950Z,95951.56
2023-02-07T19:29:06.080Z,95950.50
2023-02-07T19:31:33.645Z,95955.88
2023-02-07T19:34:00.436Z,95957.47
2023-02-07T19:36:27.899Z,95961.50
2023-02-07T19:38:54.776Z,95955.09
2023-02-07T19:41:26.339Z,95956.41
2023-02-07T19:43:54.146Z,95962.34
2023-02-07T19:46:21.729Z,95969.84
2023-02-07T19:48:49.175Z,95954.28
2023-02-07T19:51:20.245Z,95955.94
2023-02-07T19:53:50.114Z,95955.63
2023-02-07T19:56:19.190Z,95949.22
2023-02-07T19:58:49.133Z,95941.72
2023-02-07T20:01:16.993Z,95944.41
2023-02-07T20:03:44.423Z,95954.84
2023-02-07T20:06:13.457Z,95950.28
2023-02-07T20:08:41.147Z,95955.91
2023-02-07T20:11:13.249Z,95953.50
2023-02-07T20:13:42.739Z,95955.38
2023-02-07T20:16:12.372Z,95954.56
2023-02-07T20:18:39.807Z,95962.09
2023-02-07T20:21:11.669Z,95963.97
2023-02-07T20:23:39.969Z,95960.47
2023-02-07T20:26:13.800Z,95955.38
2023-02-07T20:28:41.850Z,95961.78
2023-02-07T20:31:10.195Z,95964.22
2023-02-07T20:33:38.440Z,95965.28
2023-02-07T20:36:05.953Z,95961.00
2023-02-07T20:38:32.812Z,95970.09
2023-02-07T20:41:29.075Z,95963.94
2023-02-07T20:44:03.055Z,95966.09
2023-02-07T20:46:32.482Z,95968.22
2023-02-07T20:49:01.597Z,95966.88
2023-02-07T20:51:29.729Z,95971.44
2023-02-07T20:53:58.988Z,95974.91
2023-02-07T20:56:27.091Z,95969.56
2023-02-07T20:58:54.735Z,95971.19
2023-02-07T21:01:27.739Z,95975.47
2023-02-07T21:03:56.876Z,95976.25
2023-02-07T21:06:24.758Z,95966.91
2023-02-07T21:08:59.576Z,95970.38
2023-02-07T21:11:28.866Z,95973.31
2023-02-07T21:13:55.917Z,95979.22
2023-02-07T21:16:23.665Z,95974.91
2023-02-07T21:18:50.749Z,95973.34
2023-02-07T21:21:18.331Z,95969.03
2023-02-07T21:23:45.376Z,95973.06
2023-02-07T21:26:14.836Z,95966.63
2023-02-07T21:28:43.563Z,95955.38
2023-02-07T21:31:16.036Z,95955.66
2023-02-07T21:33:43.952Z,95955.34
2023-02-07T21:36:16.581Z,95954.28
2023-02-07T21:38:46.629Z,95950.53
2023-02-07T21:41:14.844Z,95949.19
2023-02-07T21:43:42.202Z,95944.63
2023-02-07T21:46:22.848Z,95950.75
2023-02-07T21:48:53.638Z,95953.13
2023-02-07T21:51:23.109Z,95949.66
2023-02-07T21:53:51.301Z,95950.38
2023-02-07T21:56:23.403Z,95955.75
2023-02-07T21:59:02.700Z,95950.66
2023-02-07T22:01:30.768Z,95952.72
2023-02-07T22:04:00.681Z,95948.75
2023-02-07T22:06:28.642Z,95953.31
2023-02-07T22:08:57.518Z,95947.69
2023-02-07T22:11:26.664Z,95943.41
2023-02-07T22:13:54.402Z,95943.91
2023-02-07T22:16:23.298Z,95945.00
2023-02-07T22:18:52.292Z,95939.13
2023-02-07T22:21:24.827Z,95945.56
2023-02-07T22:23:52.421Z,95936.72
2023-02-07T22:26:19.803Z,95936.72
2023-02-07T22:28:47.431Z,95936.75
2023-02-07T22:31:17.768Z,95941.00
2023-02-07T22:33:45.177Z,95947.41
2023-02-07T22:36:17.282Z,95943.13
2023-02-07T22:38:43.920Z,95938.84
2023-02-07T22:41:10.657Z,95943.13
2023-02-07T22:43:39.168Z,95950.94
2023-02-07T22:46:07.767Z,95948.53
2023-02-07T22:48:35.628Z,95946.91
2023-02-07T22:51:13.849Z,95940.72
2023-02-07T22:53:41.228Z,95945.50
2023-02-07T22:56:08.446Z,95954.63
2023-02-07T22:58:35.370Z,95941.75
2023-02-07T23:01:02.114Z,95946.31
2023-02-07T23:03:29.249Z,95948.97
2023-02-07T23:05:56.014Z,95957.75
2023-02-07T23:08:25.071Z,95957.00
2023-02-07T23:10:51.706Z,95948.19
2023-02-07T23:13:18.457Z,95949.28
2023-02-07T23:15:48.628Z,95949.25
2023-02-07T23:18:15.992Z,95954.06
2023-02-07T23:20:44.623Z,95946.59
2023-02-07T23:23:14.422Z,95940.13
2023-02-07T23:25:45.756Z,95945.16
2023-02-07T23:28:13.613Z,95937.94
2023-02-07T23:30:41.369Z,95941.44
2023-02-07T23:33:09.870Z,95938.50
2023-02-07T23:35:37.005Z,95935.53
2023-02-07T23:38:04.441Z,95937.38
2023-02-07T23:40:31.277Z,95935.22
2023-02-07T23:42:58.131Z,95929.06
2023-02-07T23:45:25.177Z,95936.22
2023-02-07T23:47:51.919Z,95924.97
2023-02-07T23:50:20.037Z,95926.03
2023-02-07T23:52:46.745Z,95925.53
2023-02-07T23:55:13.413Z,95930.56
2023-02-07T23:57:40.354Z,95928.69
